Weather History for Chickasha, OK

Change the Weather History Date:

Monday, March 18, 2013

  Actual Average Record
Temperature  
Mean Temperature 48 °F -  
Max Temperature 60 °F 67 °F 86 °F (1963)
Min Temperature 35 °F 41 °F 17 °F (1960)
Degree Days  
Heating Degree Days 18    
Moisture  
Dew Point 37 °F    
Average Humidity 74    
Maximum Humidity 100    
Minimum Humidity 34    
Precipitation  
Precipitation 0.00 in - - ()
Sea Level Pressure  
Sea Level Pressure 29.90 in    
Wind  
Wind Speed 10 mph (NNE)    
Max Wind Speed 21 mph    
Max Gust Speed 29 mph    
Visibility 10 miles    
Events      
Averages and records for this station are not official NWS values.
T = Trace of Precipitation, MM = Missing Value Source: NWS Daily Summary

Daily Weather History Graph

Daily Weather History Graph

Search for Another Location

Airport:

Trip Planner

Search our weather history database for the weather conditions in past years. The results will help you decide how hot, cold, wet, or windy it might be!

Date:

Astronomy

Mar. 18, 2013 Rise Set
Actual Time 7:37 AM CDT 7:42 PM CDT
Civil Twilight 7:12 AM CDT 8:07 PM CDT
Nautical Twilight 6:43 AM CDT 8:36 PM CDT
Astronomical Twilight 6:13 AM CDT 9:06 PM CDT
Moon 11:51 AM CDT (3/18) 1:30 AM CDT (3/18)
Length of Visible Light 12h 54m
Length of Day
12h 04m
Waxing Crescent, 41% of the Moon is Illuminated
Mar 18
Waxing Crescent
Mar 19
First Quarter
Mar 27
Full
Apr 2
Last Quarter
Apr 10
New

Hourly Weather History & Observations

Time (CDT) Temp. Windchill Dew Point Humidity Pressure Visibility Wind Dir Wind Speed Gust Speed Precip Events Conditions
12:15 AM 37.4 °F 33.8 °F 37.4 °F 100% 29.67 in 10.0 mi East 4.6 mph - N/A   Clear
12:35 AM 37.4 °F 34.9 °F 37.4 °F 100% 29.67 in 10.0 mi ESE 3.5 mph - N/A   Clear
12:55 AM 37.4 °F 34.9 °F 37.4 °F 100% 29.66 in 10.0 mi SSE 3.5 mph - N/A   Clear
1:15 AM 37.4 °F 34.9 °F 37.4 °F 100% 29.66 in 10.0 mi North 3.5 mph - N/A   Clear
1:35 AM 35.6 °F 32.8 °F 35.6 °F 100% 29.65 in 10.0 mi NNE 3.5 mph - N/A   Clear
1:55 AM 35.6 °F - 35.6 °F 100% 29.66 in 10.0 mi Calm Calm - N/A   Clear
2:15 AM 35.6 °F - 35.6 °F 100% 29.65 in 10.0 mi Calm Calm - N/A   Clear
2:35 AM 35.6 °F - 35.6 °F 100% 29.65 in 7.0 mi Calm Calm - N/A   Clear
2:55 AM 35.6 °F 29.2 °F 33.8 °F 93% 29.67 in 7.0 mi North 8.1 mph - N/A   Clear
3:15 AM 37.4 °F 27.8 °F 37.4 °F 100% 29.71 in 10.0 mi NNE 17.3 mph 23.0 mph N/A   Clear
3:35 AM 37.4 °F 27.5 °F 37.4 °F 100% 29.73 in 10.0 mi NNE 18.4 mph 21.9 mph N/A   Clear
3:55 AM 39.2 °F 29.8 °F 37.4 °F 93% 29.73 in 10.0 mi NNE 18.4 mph - N/A   Clear
4:15 AM 37.4 °F 29.3 °F 37.4 °F 100% 29.73 in 10.0 mi NE 12.7 mph - N/A   Clear
4:35 AM 37.4 °F 30.8 °F 37.4 °F 100% 29.73 in 10.0 mi ENE 9.2 mph 18.4 mph N/A   Scattered Clouds
4:55 AM 37.4 °F 30.3 °F 37.4 °F 100% 29.76 in 10.0 mi NE 10.4 mph - N/A   Scattered Clouds
5:15 AM 39.2 °F 30.8 °F 39.2 °F 100% 29.80 in 10.0 mi NNE 15.0 mph 24.2 mph N/A   Mostly Cloudy
5:35 AM 39.2 °F 29.6 °F 39.2 °F 100% 29.80 in 10.0 mi NNE 19.6 mph 23.0 mph N/A   Overcast
5:55 AM 39.2 °F 30.5 °F 39.2 °F 100% 29.81 in 10.0 mi NNE 16.1 mph 28.8 mph N/A   Overcast
6:15 AM 39.2 °F 31.6 °F 39.2 °F 100% 29.82 in 10.0 mi NNE 12.7 mph - N/A   Overcast
6:35 AM 39.2 °F 34.2 °F 39.2 °F 100% 29.82 in 7.0 mi NNE 6.9 mph - N/A   Overcast
6:55 AM 39.2 °F 33.0 °F 39.2 °F 100% 29.85 in 7.0 mi North 9.2 mph - N/A   Overcast
7:15 AM 39.2 °F 31.2 °F 39.2 °F 100% 29.89 in 7.0 mi North 13.8 mph 18.4 mph N/A   Overcast
7:55 AM 39.2 °F 29.8 °F 39.2 °F 100% 29.90 in 7.0 mi North 18.4 mph 23.0 mph N/A   Overcast
8:15 AM 41.0 °F 33.1 °F 41.0 °F 100% 29.91 in 7.0 mi North 15.0 mph - N/A   Overcast
8:35 AM 41.0 °F 32.2 °F 41.0 °F 100% - 10.0 mi North 18.4 mph 21.9 mph N/A   Overcast
8:55 AM 41.0 °F 32.5 °F 41.0 °F 100% 29.93 in 10.0 mi North 17.3 mph 20.7 mph N/A   Overcast
9:15 AM 41.0 °F 31.9 °F 41.0 °F 100% 29.94 in 10.0 mi North 19.6 mph - N/A   Overcast
9:35 AM 42.8 °F 34.5 °F 41.0 °F 93% 29.94 in 10.0 mi North 18.4 mph 23.0 mph N/A   Mostly Cloudy
9:55 AM 44.6 °F 37.2 °F 42.8 °F 93% 29.95 in 10.0 mi North 17.3 mph 25.3 mph N/A   Scattered Clouds
10:15 AM 46.4 °F 39.8 °F 41.0 °F 81% 29.94 in 10.0 mi North 16.1 mph - N/A   Clear
10:35 AM 48.2 °F - 42.8 °F 82% 29.95 in 10.0 mi NNE 20.7 mph 25.3 mph N/A   Clear
10:55 AM 48.2 °F - 41.0 °F 76% 29.96 in 10.0 mi North 19.6 mph 24.2 mph N/A   Clear
11:15 AM 50.0 °F - 42.8 °F 76% 29.97 in 10.0 mi NNE 16.1 mph - N/A   Clear
11:35 AM 51.8 °F - 42.8 °F 71% 29.97 in 10.0 mi North 15.0 mph 24.2 mph N/A   Clear
11:55 AM 51.8 °F - 42.8 °F 71% 29.97 in 10.0 mi NNE 19.6 mph 23.0 mph N/A   Clear
12:15 PM 53.6 °F - 42.8 °F 67% 29.98 in 10.0 mi NNE 18.4 mph 23.0 mph N/A   Clear
12:35 PM 53.6 °F - 41.0 °F 62% 29.98 in 10.0 mi North 12.7 mph 21.9 mph N/A   Clear
12:55 PM 55.4 °F - 42.8 °F 63% 29.98 in 10.0 mi North 15.0 mph 19.6 mph N/A   Clear
1:15 PM 55.4 °F - 41.0 °F 58% 29.99 in 10.0 mi North 13.8 mph 20.7 mph N/A   Clear
1:35 PM 55.4 °F - 39.2 °F 54% 29.99 in 10.0 mi NNE 13.8 mph 20.7 mph N/A   Clear
1:55 PM 57.2 °F - 39.2 °F 51% 29.99 in 10.0 mi North 15.0 mph 20.7 mph N/A   Clear
2:15 PM 59.0 °F - 39.2 °F 48% 29.98 in 10.0 mi NNE 18.4 mph 23.0 mph N/A   Clear
2:35 PM 59.0 °F - 37.4 °F 45% 29.98 in 10.0 mi North 16.1 mph 24.2 mph N/A   Clear
2:55 PM 59.0 °F - 35.6 °F 42% 29.97 in 10.0 mi NNE 18.4 mph - N/A   Clear
3:15 PM 59.0 °F - 33.8 °F 39% 29.97 in 10.0 mi NNE 16.1 mph 23.0 mph N/A   Clear
3:35 PM 59.0 °F - 33.8 °F 39% 29.96 in 10.0 mi NNE 17.3 mph 20.7 mph N/A   Clear
3:55 PM 60.8 °F - 35.6 °F 39% 29.95 in 10.0 mi NE 17.3 mph 21.9 mph N/A   Clear
4:15 PM 60.8 °F - 33.8 °F 36% 29.94 in 10.0 mi NNE 16.1 mph 23.0 mph N/A   Clear
4:35 PM 60.8 °F - 33.8 °F 36% 29.94 in 10.0 mi NNE 17.3 mph 21.9 mph N/A   Clear
4:55 PM 60.8 °F - 32.0 °F 34% 29.94 in 10.0 mi NNE 15.0 mph 24.2 mph N/A   Clear
5:15 PM 60.8 °F - 33.8 °F 36% 29.96 in 10.0 mi North 12.7 mph - N/A   Clear
5:35 PM 60.8 °F - 33.8 °F 36% 29.97 in 10.0 mi North 15.0 mph - N/A   Clear
5:55 PM 59.0 °F - 32.0 °F 36% 29.98 in 10.0 mi North 15.0 mph 18.4 mph N/A   Clear
6:15 PM 59.0 °F - 32.0 °F 36% 29.98 in 10.0 mi North 11.5 mph - N/A   Clear
6:35 PM 59.0 °F - 33.8 °F 39% 29.99 in 10.0 mi North 10.4 mph - N/A   Clear
6:55 PM 55.4 °F - 32.0 °F 41% 29.99 in 10.0 mi NNE 9.2 mph - N/A   Clear
7:15 PM 53.6 °F - 35.6 °F 51% 30.00 in 10.0 mi North 6.9 mph - N/A   Clear
7:35 PM 50.0 °F - 33.8 °F 54% 30.01 in 10.0 mi NNE 6.9 mph - N/A   Clear
7:55 PM 48.2 °F - 32.0 °F 54% 30.01 in 10.0 mi NNE 6.9 mph - N/A   Clear
8:15 PM 48.2 °F - 33.8 °F 58% 30.01 in 10.0 mi NNE 6.9 mph - N/A   Clear
8:35 PM 48.2 °F - 32.0 °F 54% 30.01 in 10.0 mi NNE 5.8 mph - N/A   Clear
8:55 PM 48.2 °F - 32.0 °F 54% 30.01 in 10.0 mi NE 3.5 mph - N/A   Clear
9:15 PM 48.2 °F - 32.0 °F 54% 30.01 in 10.0 mi NE 6.9 mph - N/A   Clear
9:35 PM 41.0 °F 38.0 °F 32.0 °F 70% 30.01 in 10.0 mi NE 4.6 mph - N/A   Clear
9:55 PM 41.0 °F 37.1 °F 32.0 °F 70% 30.02 in 10.0 mi NE 5.8 mph - N/A   Clear
10:15 PM 41.0 °F 36.4 °F 32.0 °F 70% 30.02 in 10.0 mi NE 6.9 mph - N/A   Clear
10:55 PM 37.4 °F - 32.0 °F 81% 30.04 in 10.0 mi Calm Calm - N/A   Clear
11:15 PM 37.4 °F 32.8 °F 32.0 °F 81% 30.03 in 10.0 mi ENE 5.8 mph - N/A   Clear
11:35 PM 35.6 °F 28.6 °F 32.0 °F 87% 30.01 in 10.0 mi ENE 9.2 mph - N/A   Clear
11:55 PM 35.6 °F 29.9 °F 32.0 °F 87% 30.02 in 10.0 mi ENE 6.9 mph - N/A   Clear